sensor_id;sensor_type;location;lat;lon;timestamp;P1;durP1;ratioP1;P2;durP2;ratioP2
3625;SDS011;1827;50.534;8.316;2023-05-08T00:01:05;33.37;;;18.30;;
3625;SDS011;1827;50.534;8.316;2023-05-08T00:03:30;34.27;;;17.37;;
3625;SDS011;1827;50.534;8.316;2023-05-08T00:05:57;32.90;;;17.83;;
3625;SDS011;1827;50.534;8.316;2023-05-08T00:08:24;35.33;;;17.40;;
3625;SDS011;1827;50.534;8.316;2023-05-08T00:10:49;33.80;;;17.40;;
3625;SDS011;1827;50.534;8.316;2023-05-08T00:13:15;32.40;;;16.63;;
3625;SDS011;1827;50.534;8.316;2023-05-08T00:15:41;30.40;;;16.90;;
3625;SDS011;1827;50.534;8.316;2023-05-08T00:18:07;37.37;;;17.00;;
3625;SDS011;1827;50.534;8.316;2023-05-08T00:20:32;35.63;;;16.63;;
3625;SDS011;1827;50.534;8.316;2023-05-08T00:22:58;36.00;;;15.80;;
3625;SDS011;1827;50.534;8.316;2023-05-08T00:25:24;31.97;;;16.00;;
3625;SDS011;1827;50.534;8.316;2023-05-08T00:27:51;31.50;;;16.90;;
3625;SDS011;1827;50.534;8.316;2023-05-08T00:30:17;38.60;;;16.93;;
3625;SDS011;1827;50.534;8.316;2023-05-08T00:32:43;30.53;;;16.70;;
3625;SDS011;1827;50.534;8.316;2023-05-08T00:35:08;31.03;;;17.20;;
3625;SDS011;1827;50.534;8.316;2023-05-08T00:37:34;32.27;;;16.73;;
3625;SDS011;1827;50.534;8.316;2023-05-08T00:40:01;28.60;;;14.80;;
3625;SDS011;1827;50.534;8.316;2023-05-08T00:42:28;29.90;;;15.63;;
3625;SDS011;1827;50.534;8.316;2023-05-08T00:44:54;32.90;;;16.00;;
3625;SDS011;1827;50.534;8.316;2023-05-08T00:47:20;31.83;;;16.83;;
3625;SDS011;1827;50.534;8.316;2023-05-08T00:49:47;33.47;;;16.30;;
3625;SDS011;1827;50.534;8.316;2023-05-08T00:52:13;29.00;;;15.60;;
3625;SDS011;1827;50.534;8.316;2023-05-08T00:54:40;31.57;;;16.33;;
3625;SDS011;1827;50.534;8.316;2023-05-08T00:57:06;31.17;;;16.40;;
3625;SDS011;1827;50.534;8.316;2023-05-08T00:59:33;29.37;;;15.90;;
3625;SDS011;1827;50.534;8.316;2023-05-08T01:02:00;31.87;;;17.07;;
3625;SDS011;1827;50.534;8.316;2023-05-08T01:04:26;33.00;;;16.67;;
3625;SDS011;1827;50.534;8.316;2023-05-08T01:06:55;32.10;;;17.60;;
3625;SDS011;1827;50.534;8.316;2023-05-08T01:09:21;33.37;;;16.00;;
3625;SDS011;1827;50.534;8.316;2023-05-08T01:12:05;31.37;;;16.97;;
3625;SDS011;1827;50.534;8.316;2023-05-08T01:17:23;32.47;;;17.60;;
3625;SDS011;1827;50.534;8.316;2023-05-08T01:25:29;33.43;;;17.57;;
3625;SDS011;1827;50.534;8.316;2023-05-08T01:33:40;34.23;;;16.23;;
3625;SDS011;1827;50.534;8.316;2023-05-08T01:36:18;33.10;;;16.60;;
3625;SDS011;1827;50.534;8.316;2023-05-08T01:39:03;31.97;;;15.67;;
3625;SDS011;1827;50.534;8.316;2023-05-08T01:41:55;32.07;;;16.57;;
3625;SDS011;1827;50.534;8.316;2023-05-08T01:44:37;29.37;;;15.07;;
3625;SDS011;1827;50.534;8.316;2023-05-08T01:47:14;30.70;;;15.83;;
3625;SDS011;1827;50.534;8.316;2023-05-08T01:49:46;34.10;;;15.53;;
3625;SDS011;1827;50.534;8.316;2023-05-08T01:55:11;34.37;;;15.20;;
3625;SDS011;1827;50.534;8.316;2023-05-08T01:57:46;29.80;;;16.00;;
3625;SDS011;1827;50.534;8.316;2023-05-08T02:00:16;30.90;;;15.70;;
3625;SDS011;1827;50.534;8.316;2023-05-08T02:02:46;31.63;;;16.50;;
3625;SDS011;1827;50.534;8.316;2023-05-08T02:05:13;33.37;;;17.30;;
3625;SDS011;1827;50.534;8.316;2023-05-08T02:07:40;37.97;;;18.63;;
3625;SDS011;1827;50.534;8.316;2023-05-08T02:10:08;38.87;;;21.27;;
3625;SDS011;1827;50.534;8.316;2023-05-08T02:12:36;38.90;;;19.97;;
3625;SDS011;1827;50.534;8.316;2023-05-08T02:15:03;40.33;;;21.23;;
3625;SDS011;1827;50.534;8.316;2023-05-08T02:17:31;44.17;;;20.20;;
3625;SDS011;1827;50.534;8.316;2023-05-08T02:19:59;33.73;;;18.30;;
3625;SDS011;1827;50.534;8.316;2023-05-08T02:22:27;39.03;;;19.07;;
3625;SDS011;1827;50.534;8.316;2023-05-08T02:24:55;36.13;;;18.40;;
3625;SDS011;1827;50.534;8.316;2023-05-08T02:27:23;32.20;;;17.50;;
3625;SDS011;1827;50.534;8.316;2023-05-08T02:29:52;32.30;;;17.50;;
3625;SDS011;1827;50.534;8.316;2023-05-08T02:32:19;36.33;;;18.33;;
3625;SDS011;1827;50.534;8.316;2023-05-08T02:34:46;38.40;;;17.90;;
3625;SDS011;1827;50.534;8.316;2023-05-08T02:37:14;51.13;;;18.50;;
3625;SDS011;1827;50.534;8.316;2023-05-08T02:39:42;37.17;;;18.20;;
3625;SDS011;1827;50.534;8.316;2023-05-08T02:42:09;36.53;;;17.23;;
3625;SDS011;1827;50.534;8.316;2023-05-08T02:44:35;31.33;;;16.50;;
3625;SDS011;1827;50.534;8.316;2023-05-08T02:47:07;35.37;;;17.70;;
3625;SDS011;1827;50.534;8.316;2023-05-08T02:49:46;34.03;;;18.27;;
3625;SDS011;1827;50.534;8.316;2023-05-08T02:52:23;36.63;;;17.90;;
3625;SDS011;1827;50.534;8.316;2023-05-08T03:00:21;42.80;;;17.63;;
3625;SDS011;1827;50.534;8.316;2023-05-08T03:03:00;35.70;;;17.13;;
3625;SDS011;1827;50.534;8.316;2023-05-08T03:05:33;33.30;;;17.30;;
3625;SDS011;1827;50.534;8.316;2023-05-08T03:08:04;34.63;;;18.40;;
3625;SDS011;1827;50.534;8.316;2023-05-08T03:10:32;35.27;;;17.83;;
3625;SDS011;1827;50.534;8.316;2023-05-08T03:13:04;35.00;;;17.37;;
3625;SDS011;1827;50.534;8.316;2023-05-08T03:15:43;33.07;;;16.23;;
3625;SDS011;1827;50.534;8.316;2023-05-08T03:18:15;34.53;;;16.57;;
3625;SDS011;1827;50.534;8.316;2023-05-08T03:20:45;33.23;;;16.70;;
3625;SDS011;1827;50.534;8.316;2023-05-08T03:23:14;30.57;;;15.60;;
3625;SDS011;1827;50.534;8.316;2023-05-08T03:25:42;29.33;;;15.00;;
3625;SDS011;1827;50.534;8.316;2023-05-08T03:28:09;31.60;;;16.60;;
3625;SDS011;1827;50.534;8.316;2023-05-08T03:30:38;36.33;;;16.90;;
3625;SDS011;1827;50.534;8.316;2023-05-08T03:33:10;37.73;;;17.50;;
3625;SDS011;1827;50.534;8.316;2023-05-08T03:35:37;34.87;;;17.60;;
3625;SDS011;1827;50.534;8.316;2023-05-08T03:38:04;31.30;;;17.13;;
3625;SDS011;1827;50.534;8.316;2023-05-08T03:40:33;37.90;;;17.40;;
3625;SDS011;1827;50.534;8.316;2023-05-08T03:43:09;32.87;;;17.00;;
3625;SDS011;1827;50.534;8.316;2023-05-08T03:45:37;36.83;;;18.03;;
3625;SDS011;1827;50.534;8.316;2023-05-08T03:48:04;37.83;;;17.67;;
3625;SDS011;1827;50.534;8.316;2023-05-08T03:50:33;36.13;;;18.00;;
3625;SDS011;1827;50.534;8.316;2023-05-08T03:53:00;36.83;;;19.47;;
3625;SDS011;1827;50.534;8.316;2023-05-08T03:55:28;39.20;;;19.10;;
3625;SDS011;1827;50.534;8.316;2023-05-08T04:00:28;37.80;;;19.50;;
3625;SDS011;1827;50.534;8.316;2023-05-08T04:03:24;39.57;;;18.30;;
3625;SDS011;1827;50.534;8.316;2023-05-08T04:06:10;38.50;;;17.80;;
3625;SDS011;1827;50.534;8.316;2023-05-08T04:09:07;40.10;;;18.20;;
3625;SDS011;1827;50.534;8.316;2023-05-08T04:12:02;49.63;;;17.57;;
3625;SDS011;1827;50.534;8.316;2023-05-08T04:14:39;36.30;;;16.77;;
3625;SDS011;1827;50.534;8.316;2023-05-08T04:20:00;34.70;;;17.53;;
3625;SDS011;1827;50.534;8.316;2023-05-08T04:22:28;37.87;;;18.90;;
3625;SDS011;1827;50.534;8.316;2023-05-08T04:24:57;37.10;;;17.87;;
3625;SDS011;1827;50.534;8.316;2023-05-08T04:27:27;33.03;;;16.80;;
3625;SDS011;1827;50.534;8.316;2023-05-08T04:29:53;39.03;;;16.90;;
3625;SDS011;1827;50.534;8.316;2023-05-08T04:32:20;34.30;;;15.80;;
3625;SDS011;1827;50.534;8.316;2023-05-08T04:34:47;32.53;;;17.23;;
3625;SDS011;1827;50.534;8.316;2023-05-08T04:39:54;32.37;;;17.10;;
3625;SDS011;1827;50.534;8.316;2023-05-08T04:42:20;39.93;;;16.20;;
3625;SDS011;1827;50.534;8.316;2023-05-08T04:44:46;33.00;;;16.73;;
3625;SDS011;1827;50.534;8.316;2023-05-08T04:47:13;31.60;;;16.10;;
3625;SDS011;1827;50.534;8.316;2023-05-08T04:49:38;33.77;;;17.17;;
3625;SDS011;1827;50.534;8.316;2023-05-08T04:52:05;32.90;;;15.63;;
3625;SDS011;1827;50.534;8.316;2023-05-08T04:54:32;33.90;;;15.37;;
3625;SDS011;1827;50.534;8.316;2023-05-08T04:56:58;31.77;;;15.57;;
3625;SDS011;1827;50.534;8.316;2023-05-08T04:59:24;30.40;;;14.70;;
3625;SDS011;1827;50.534;8.316;2023-05-08T05:01:50;33.63;;;15.70;;
3625;SDS011;1827;50.534;8.316;2023-05-08T05:04:16;33.70;;;16.63;;
3625;SDS011;1827;50.534;8.316;2023-05-08T05:06:42;32.37;;;16.97;;
3625;SDS011;1827;50.534;8.316;2023-05-08T05:09:08;36.87;;;17.47;;
3625;SDS011;1827;50.534;8.316;2023-05-08T05:11:34;39.23;;;16.50;;
3625;SDS011;1827;50.534;8.316;2023-05-08T05:14:00;38.00;;;17.30;;
3625;SDS011;1827;50.534;8.316;2023-05-08T05:16:26;32.43;;;17.20;;
3625;SDS011;1827;50.534;8.316;2023-05-08T05:18:52;34.10;;;17.10;;
3625;SDS011;1827;50.534;8.316;2023-05-08T05:21:18;34.90;;;15.60;;
3625;SDS011;1827;50.534;8.316;2023-05-08T05:23:45;33.70;;;16.30;;
3625;SDS011;1827;50.534;8.316;2023-05-08T05:26:10;36.13;;;17.13;;
3625;SDS011;1827;50.534;8.316;2023-05-08T05:28:36;32.63;;;16.30;;
3625;SDS011;1827;50.534;8.316;2023-05-08T05:31:02;31.53;;;16.73;;
3625;SDS011;1827;50.534;8.316;2023-05-08T05:33:29;33.73;;;16.80;;
3625;SDS011;1827;50.534;8.316;2023-05-08T05:35:54;33.90;;;16.87;;
3625;SDS011;1827;50.534;8.316;2023-05-08T05:38:21;35.20;;;17.20;;
3625;SDS011;1827;50.534;8.316;2023-05-08T05:40:48;30.43;;;16.60;;
3625;SDS011;1827;50.534;8.316;2023-05-08T05:43:14;32.77;;;16.70;;
3625;SDS011;1827;50.534;8.316;2023-05-08T05:45:40;31.83;;;15.70;;
3625;SDS011;1827;50.534;8.316;2023-05-08T05:48:06;32.47;;;16.17;;
3625;SDS011;1827;50.534;8.316;2023-05-08T05:50:33;34.80;;;15.93;;
3625;SDS011;1827;50.534;8.316;2023-05-08T05:53:00;32.20;;;15.83;;
3625;SDS011;1827;50.534;8.316;2023-05-08T05:55:26;30.00;;;15.40;;
3625;SDS011;1827;50.534;8.316;2023-05-08T05:57:52;29.53;;;14.63;;
3625;SDS011;1827;50.534;8.316;2023-05-08T06:00:18;32.83;;;15.87;;
3625;SDS011;1827;50.534;8.316;2023-05-08T06:02:49;30.00;;;14.73;;
3625;SDS011;1827;50.534;8.316;2023-05-08T06:05:15;34.07;;;15.60;;
3625;SDS011;1827;50.534;8.316;2023-05-08T06:07:43;31.30;;;16.03;;
3625;SDS011;1827;50.534;8.316;2023-05-08T06:10:08;37.83;;;16.70;;
3625;SDS011;1827;50.534;8.316;2023-05-08T06:12:36;33.17;;;16.30;;
3625;SDS011;1827;50.534;8.316;2023-05-08T06:15:03;29.20;;;14.83;;
3625;SDS011;1827;50.534;8.316;2023-05-08T06:17:29;30.47;;;16.13;;
3625;SDS011;1827;50.534;8.316;2023-05-08T06:19:55;30.33;;;15.30;;
3625;SDS011;1827;50.534;8.316;2023-05-08T06:22:21;31.23;;;15.37;;
3625;SDS011;1827;50.534;8.316;2023-05-08T06:24:51;31.87;;;15.63;;
3625;SDS011;1827;50.534;8.316;2023-05-08T06:27:18;33.30;;;16.03;;
3625;SDS011;1827;50.534;8.316;2023-05-08T06:29:46;29.80;;;15.90;;
3625;SDS011;1827;50.534;8.316;2023-05-08T06:32:17;31.40;;;16.17;;
3625;SDS011;1827;50.534;8.316;2023-05-08T06:34:43;42.43;;;16.33;;
3625;SDS011;1827;50.534;8.316;2023-05-08T06:37:09;31.00;;;15.53;;
3625;SDS011;1827;50.534;8.316;2023-05-08T06:39:35;31.43;;;15.90;;
3625;SDS011;1827;50.534;8.316;2023-05-08T06:42:00;35.90;;;16.37;;
3625;SDS011;1827;50.534;8.316;2023-05-08T06:44:29;33.93;;;15.77;;
3625;SDS011;1827;50.534;8.316;2023-05-08T06:46:55;33.27;;;14.57;;
3625;SDS011;1827;50.534;8.316;2023-05-08T06:49:20;31.03;;;15.73;;
3625;SDS011;1827;50.534;8.316;2023-05-08T06:51:47;30.23;;;16.17;;
3625;SDS011;1827;50.534;8.316;2023-05-08T06:54:13;30.93;;;15.80;;
3625;SDS011;1827;50.534;8.316;2023-05-08T06:56:38;32.90;;;14.60;;
3625;SDS011;1827;50.534;8.316;2023-05-08T06:59:04;37.20;;;16.43;;
3625;SDS011;1827;50.534;8.316;2023-05-08T07:01:30;32.97;;;14.90;;
3625;SDS011;1827;50.534;8.316;2023-05-08T07:03:55;28.63;;;13.83;;
3625;SDS011;1827;50.534;8.316;2023-05-08T07:06:21;31.63;;;15.63;;
3625;SDS011;1827;50.534;8.316;2023-05-08T07:08:47;32.60;;;15.67;;
3625;SDS011;1827;50.534;8.316;2023-05-08T07:11:14;33.13;;;15.80;;
3625;SDS011;1827;50.534;8.316;2023-05-08T07:13:39;31.50;;;15.53;;
3625;SDS011;1827;50.534;8.316;2023-05-08T07:16:10;30.73;;;15.00;;
3625;SDS011;1827;50.534;8.316;2023-05-08T07:18:36;36.90;;;15.43;;
3625;SDS011;1827;50.534;8.316;2023-05-08T07:21:02;34.20;;;15.00;;
3625;SDS011;1827;50.534;8.316;2023-05-08T07:23:28;29.20;;;14.10;;
3625;SDS011;1827;50.534;8.316;2023-05-08T07:25:54;29.30;;;14.20;;
3625;SDS011;1827;50.534;8.316;2023-05-08T07:28:20;27.40;;;13.90;;
3625;SDS011;1827;50.534;8.316;2023-05-08T07:30:45;29.30;;;14.43;;
3625;SDS011;1827;50.534;8.316;2023-05-08T07:33:11;29.47;;;13.70;;
3625;SDS011;1827;50.534;8.316;2023-05-08T07:35:40;29.13;;;14.90;;
3625;SDS011;1827;50.534;8.316;2023-05-08T07:38:06;27.67;;;14.00;;
3625;SDS011;1827;50.534;8.316;2023-05-08T07:40:32;30.00;;;14.57;;
3625;SDS011;1827;50.534;8.316;2023-05-08T07:42:58;30.20;;;15.57;;
3625;SDS011;1827;50.534;8.316;2023-05-08T07:45:24;29.27;;;14.13;;
3625;SDS011;1827;50.534;8.316;2023-05-08T07:47:52;30.30;;;14.77;;
3625;SDS011;1827;50.534;8.316;2023-05-08T07:50:21;29.17;;;14.27;;
3625;SDS011;1827;50.534;8.316;2023-05-08T07:52:49;29.40;;;14.40;;
3625;SDS011;1827;50.534;8.316;2023-05-08T07:55:15;29.23;;;13.67;;
3625;SDS011;1827;50.534;8.316;2023-05-08T07:57:41;27.73;;;14.17;;
3625;SDS011;1827;50.534;8.316;2023-05-08T08:00:09;30.83;;;14.60;;
3625;SDS011;1827;50.534;8.316;2023-05-08T08:02:39;28.33;;;14.13;;
3625;SDS011;1827;50.534;8.316;2023-05-08T08:05:06;29.80;;;13.70;;
3625;SDS011;1827;50.534;8.316;2023-05-08T08:07:33;29.33;;;13.97;;
3625;SDS011;1827;50.534;8.316;2023-05-08T08:10:00;28.70;;;14.10;;
3625;SDS011;1827;50.534;8.316;2023-05-08T08:12:28;30.83;;;14.20;;
3625;SDS011;1827;50.534;8.316;2023-05-08T08:14:55;30.30;;;13.43;;
3625;SDS011;1827;50.534;8.316;2023-05-08T08:17:21;32.87;;;14.60;;
3625;SDS011;1827;50.534;8.316;2023-05-08T08:19:47;30.03;;;14.70;;
3625;SDS011;1827;50.534;8.316;2023-05-08T08:22:12;33.77;;;14.23;;
3625;SDS011;1827;50.534;8.316;2023-05-08T08:24:38;27.80;;;13.17;;
3625;SDS011;1827;50.534;8.316;2023-05-08T08:27:04;28.50;;;12.70;;
3625;SDS011;1827;50.534;8.316;2023-05-08T08:29:30;29.10;;;12.13;;
3625;SDS011;1827;50.534;8.316;2023-05-08T08:31:56;24.80;;;12.00;;
3625;SDS011;1827;50.534;8.316;2023-05-08T08:34:21;27.70;;;13.40;;
3625;SDS011;1827;50.534;8.316;2023-05-08T08:36:47;25.47;;;11.93;;
3625;SDS011;1827;50.534;8.316;2023-05-08T08:39:13;25.80;;;12.07;;
3625;SDS011;1827;50.534;8.316;2023-05-08T08:41:39;34.57;;;13.90;;
3625;SDS011;1827;50.534;8.316;2023-05-08T08:44:05;27.83;;;12.50;;
3625;SDS011;1827;50.534;8.316;2023-05-08T08:46:30;37.43;;;13.80;;
3625;SDS011;1827;50.534;8.316;2023-05-08T08:49:02;26.77;;;12.07;;
3625;SDS011;1827;50.534;8.316;2023-05-08T08:54:07;26.90;;;12.10;;
3625;SDS011;1827;50.534;8.316;2023-05-08T08:56:36;30.73;;;11.60;;
3625;SDS011;1827;50.534;8.316;2023-05-08T08:59:04;35.53;;;11.20;;
3625;SDS011;1827;50.534;8.316;2023-05-08T09:01:32;33.83;;;13.00;;
3625;SDS011;1827;50.534;8.316;2023-05-08T09:04:04;32.30;;;13.33;;
3625;SDS011;1827;50.534;8.316;2023-05-08T09:06:30;29.77;;;13.50;;
3625;SDS011;1827;50.534;8.316;2023-05-08T09:08:59;26.00;;;11.20;;
3625;SDS011;1827;50.534;8.316;2023-05-08T09:11:26;34.60;;;14.23;;
3625;SDS011;1827;50.534;8.316;2023-05-08T09:13:56;28.53;;;12.13;;
3625;SDS011;1827;50.534;8.316;2023-05-08T09:16:22;29.17;;;13.90;;
3625;SDS011;1827;50.534;8.316;2023-05-08T09:18:49;26.33;;;11.47;;
3625;SDS011;1827;50.534;8.316;2023-05-08T09:21:14;39.90;;;13.97;;
3625;SDS011;1827;50.534;8.316;2023-05-08T09:26:29;26.10;;;12.30;;
3625;SDS011;1827;50.534;8.316;2023-05-08T09:31:37;39.53;;;13.60;;
3625;SDS011;1827;50.534;8.316;2023-05-08T09:34:08;33.13;;;13.10;;
3625;SDS011;1827;50.534;8.316;2023-05-08T09:36:35;30.30;;;12.40;;
3625;SDS011;1827;50.534;8.316;2023-05-08T09:39:01;31.23;;;12.97;;
3625;SDS011;1827;50.534;8.316;2023-05-08T09:41:30;40.73;;;13.70;;
3625;SDS011;1827;50.534;8.316;2023-05-08T09:44:03;40.90;;;14.37;;
3625;SDS011;1827;50.534;8.316;2023-05-08T09:46:29;38.40;;;14.93;;
3625;SDS011;1827;50.534;8.316;2023-05-08T09:48:58;45.97;;;14.30;;
3625;SDS011;1827;50.534;8.316;2023-05-08T09:51:26;33.70;;;13.77;;
3625;SDS011;1827;50.534;8.316;2023-05-08T09:58:55;31.70;;;14.10;;
3625;SDS011;1827;50.534;8.316;2023-05-08T10:03:55;31.33;;;14.77;;
3625;SDS011;1827;50.534;8.316;2023-05-08T10:06:21;33.53;;;14.57;;
3625;SDS011;1827;50.534;8.316;2023-05-08T10:08:48;34.50;;;14.50;;
3625;SDS011;1827;50.534;8.316;2023-05-08T10:11:29;28.73;;;13.57;;
3625;SDS011;1827;50.534;8.316;2023-05-08T10:13:55;27.00;;;13.63;;
3625;SDS011;1827;50.534;8.316;2023-05-08T10:16:21;31.83;;;15.07;;
3625;SDS011;1827;50.534;8.316;2023-05-08T10:18:47;29.60;;;14.27;;
3625;SDS011;1827;50.534;8.316;2023-05-08T10:21:15;30.40;;;15.40;;
3625;SDS011;1827;50.534;8.316;2023-05-08T10:23:42;33.03;;;14.40;;
3625;SDS011;1827;50.534;8.316;2023-05-08T10:26:10;30.73;;;15.57;;
3625;SDS011;1827;50.534;8.316;2023-05-08T10:28:42;35.70;;;15.70;;
3625;SDS011;1827;50.534;8.316;2023-05-08T10:31:13;34.80;;;15.27;;
3625;SDS011;1827;50.534;8.316;2023-05-08T10:33:43;40.90;;;16.50;;
3625;SDS011;1827;50.534;8.316;2023-05-08T10:36:10;33.97;;;16.90;;
3625;SDS011;1827;50.534;8.316;2023-05-08T10:38:37;30.73;;;16.90;;
3625;SDS011;1827;50.534;8.316;2023-05-08T10:41:05;35.63;;;16.90;;
3625;SDS011;1827;50.534;8.316;2023-05-08T10:43:31;32.10;;;16.90;;
3625;SDS011;1827;50.534;8.316;2023-05-08T10:45:58;36.33;;;15.80;;
3625;SDS011;1827;50.534;8.316;2023-05-08T10:48:31;28.40;;;14.63;;
3625;SDS011;1827;50.534;8.316;2023-05-08T10:53:56;29.30;;;13.57;;
3625;SDS011;1827;50.534;8.316;2023-05-08T10:56:29;28.30;;;14.17;;
3625;SDS011;1827;50.534;8.316;2023-05-08T10:58:55;27.90;;;13.93;;
3625;SDS011;1827;50.534;8.316;2023-05-08T11:01:23;32.43;;;14.63;;
3625;SDS011;1827;50.534;8.316;2023-05-08T11:03:49;27.17;;;13.87;;
3625;SDS011;1827;50.534;8.316;2023-05-08T11:06:15;29.17;;;14.10;;
3625;SDS011;1827;50.534;8.316;2023-05-08T11:09:01;29.77;;;13.00;;
3625;SDS011;1827;50.534;8.316;2023-05-08T11:11:31;25.67;;;12.70;;
3625;SDS011;1827;50.534;8.316;2023-05-08T11:19:21;25.93;;;11.20;;
3625;SDS011;1827;50.534;8.316;2023-05-08T11:24:52;25.83;;;11.20;;
3625;SDS011;1827;50.534;8.316;2023-05-08T11:35:45;22.03;;;9.87;;
3625;SDS011;1827;50.534;8.316;2023-05-08T11:38:20;24.30;;;10.77;;
3625;SDS011;1827;50.534;8.316;2023-05-08T11:40:54;22.93;;;10.63;;
3625;SDS011;1827;50.534;8.316;2023-05-08T11:46:00;21.70;;;9.80;;
3625;SDS011;1827;50.534;8.316;2023-05-08T11:48:30;22.83;;;10.27;;
3625;SDS011;1827;50.534;8.316;2023-05-08T11:50:57;22.70;;;11.00;;
3625;SDS011;1827;50.534;8.316;2023-05-08T11:53:24;21.97;;;10.30;;
3625;SDS011;1827;50.534;8.316;2023-05-08T11:55:52;24.50;;;11.00;;
3625;SDS011;1827;50.534;8.316;2023-05-08T11:58:18;28.40;;;11.57;;
3625;SDS011;1827;50.534;8.316;2023-05-08T12:00:45;25.90;;;11.50;;
3625;SDS011;1827;50.534;8.316;2023-05-08T12:03:15;24.57;;;11.37;;
3625;SDS011;1827;50.534;8.316;2023-05-08T12:05:42;25.40;;;12.50;;
3625;SDS011;1827;50.534;8.316;2023-05-08T12:08:08;25.70;;;12.17;;
3625;SDS011;1827;50.534;8.316;2023-05-08T12:10:38;23.53;;;10.90;;
3625;SDS011;1827;50.534;8.316;2023-05-08T12:13:19;23.50;;;10.87;;
3625;SDS011;1827;50.534;8.316;2023-05-08T12:15:45;26.63;;;11.97;;
3625;SDS011;1827;50.534;8.316;2023-05-08T12:18:12;38.63;;;19.47;;
3625;SDS011;1827;50.534;8.316;2023-05-08T12:20:39;29.53;;;14.17;;
3625;SDS011;1827;50.534;8.316;2023-05-08T12:23:04;27.77;;;12.17;;
3625;SDS011;1827;50.534;8.316;2023-05-08T12:25:30;25.07;;;11.53;;
3625;SDS011;1827;50.534;8.316;2023-05-08T12:27:56;25.30;;;11.40;;
3625;SDS011;1827;50.534;8.316;2023-05-08T12:30:24;25.63;;;12.23;;
3625;SDS011;1827;50.534;8.316;2023-05-08T12:32:50;25.73;;;12.10;;
3625;SDS011;1827;50.534;8.316;2023-05-08T12:35:16;26.67;;;13.13;;
3625;SDS011;1827;50.534;8.316;2023-05-08T12:37:43;25.93;;;12.47;;
3625;SDS011;1827;50.534;8.316;2023-05-08T12:40:21;28.27;;;12.20;;
3625;SDS011;1827;50.534;8.316;2023-05-08T12:42:53;27.57;;;14.33;;
3625;SDS011;1827;50.534;8.316;2023-05-08T12:45:20;25.60;;;13.13;;
3625;SDS011;1827;50.534;8.316;2023-05-08T12:47:47;23.83;;;12.00;;
3625;SDS011;1827;50.534;8.316;2023-05-08T12:50:15;24.60;;;10.83;;
3625;SDS011;1827;50.534;8.316;2023-05-08T12:52:41;24.87;;;12.63;;
3625;SDS011;1827;50.534;8.316;2023-05-08T12:57:47;26.40;;;11.97;;
3625;SDS011;1827;50.534;8.316;2023-05-08T13:00:33;25.13;;;12.17;;
3625;SDS011;1827;50.534;8.316;2023-05-08T13:03:07;26.57;;;12.27;;
3625;SDS011;1827;50.534;8.316;2023-05-08T13:05:35;28.87;;;12.07;;
3625;SDS011;1827;50.534;8.316;2023-05-08T13:08:02;26.10;;;13.13;;
3625;SDS011;1827;50.534;8.316;2023-05-08T13:10:42;28.67;;;13.07;;
3625;SDS011;1827;50.534;8.316;2023-05-08T13:13:10;26.17;;;13.00;;
3625;SDS011;1827;50.534;8.316;2023-05-08T13:15:42;26.63;;;13.33;;
3625;SDS011;1827;50.534;8.316;2023-05-08T13:18:08;25.67;;;12.37;;
3625;SDS011;1827;50.534;8.316;2023-05-08T13:20:34;27.00;;;13.00;;
3625;SDS011;1827;50.534;8.316;2023-05-08T13:23:00;27.57;;;14.47;;
3625;SDS011;1827;50.534;8.316;2023-05-08T13:25:26;35.13;;;13.60;;
3625;SDS011;1827;50.534;8.316;2023-05-08T13:27:52;35.23;;;14.87;;
3625;SDS011;1827;50.534;8.316;2023-05-08T13:30:18;48.83;;;13.90;;
3625;SDS011;1827;50.534;8.316;2023-05-08T13:32:46;27.97;;;14.30;;
3625;SDS011;1827;50.534;8.316;2023-05-08T13:35:12;25.03;;;12.97;;
3625;SDS011;1827;50.534;8.316;2023-05-08T13:37:38;26.63;;;13.30;;
3625;SDS011;1827;50.534;8.316;2023-05-08T13:40:04;27.47;;;12.63;;
3625;SDS011;1827;50.534;8.316;2023-05-08T13:42:30;24.00;;;12.17;;
3625;SDS011;1827;50.534;8.316;2023-05-08T13:44:55;26.10;;;12.50;;
3625;SDS011;1827;50.534;8.316;2023-05-08T13:47:21;24.20;;;12.00;;
3625;SDS011;1827;50.534;8.316;2023-05-08T13:49:47;25.00;;;12.13;;
3625;SDS011;1827;50.534;8.316;2023-05-08T13:52:14;25.77;;;12.27;;
3625;SDS011;1827;50.534;8.316;2023-05-08T13:54:40;27.07;;;12.20;;
3625;SDS011;1827;50.534;8.316;2023-05-08T13:57:06;24.10;;;12.10;;
3625;SDS011;1827;50.534;8.316;2023-05-08T13:59:32;29.90;;;12.70;;
3625;SDS011;1827;50.534;8.316;2023-05-08T14:02:01;24.20;;;12.50;;
3625;SDS011;1827;50.534;8.316;2023-05-08T14:04:35;25.83;;;12.80;;
3625;SDS011;1827;50.534;8.316;2023-05-08T14:07:18;27.20;;;13.33;;
3625;SDS011;1827;50.534;8.316;2023-05-08T14:09:47;30.07;;;13.40;;
3625;SDS011;1827;50.534;8.316;2023-05-08T14:12:13;36.70;;;13.17;;
3625;SDS011;1827;50.534;8.316;2023-05-08T14:14:39;25.63;;;12.37;;
3625;SDS011;1827;50.534;8.316;2023-05-08T14:17:23;26.27;;;13.17;;
3625;SDS011;1827;50.534;8.316;2023-05-08T14:20:01;24.77;;;12.80;;
3625;SDS011;1827;50.534;8.316;2023-05-08T14:22:28;28.17;;;13.73;;
3625;SDS011;1827;50.534;8.316;2023-05-08T14:25:11;27.10;;;12.73;;
3625;SDS011;1827;50.534;8.316;2023-05-08T14:27:39;30.20;;;12.73;;
3625;SDS011;1827;50.534;8.316;2023-05-08T14:30:05;26.83;;;13.33;;
3625;SDS011;1827;50.534;8.316;2023-05-08T14:33:06;24.67;;;12.40;;
3625;SDS011;1827;50.534;8.316;2023-05-08T14:35:34;30.97;;;11.33;;
3625;SDS011;1827;50.534;8.316;2023-05-08T14:38:20;26.53;;;12.27;;
3625;SDS011;1827;50.534;8.316;2023-05-08T14:41:01;25.83;;;11.83;;
3625;SDS011;1827;50.534;8.316;2023-05-08T14:43:30;25.60;;;11.80;;
3625;SDS011;1827;50.534;8.316;2023-05-08T14:45:59;24.13;;;10.33;;
3625;SDS011;1827;50.534;8.316;2023-05-08T14:48:33;23.20;;;9.87;;
3625;SDS011;1827;50.534;8.316;2023-05-08T14:50:59;25.87;;;10.50;;
3625;SDS011;1827;50.534;8.316;2023-05-08T14:53:25;23.07;;;10.50;;
3625;SDS011;1827;50.534;8.316;2023-05-08T14:55:51;27.63;;;12.37;;
3625;SDS011;1827;50.534;8.316;2023-05-08T14:58:20;26.83;;;11.33;;
3625;SDS011;1827;50.534;8.316;2023-05-08T15:00:45;22.23;;;8.80;;
3625;SDS011;1827;50.534;8.316;2023-05-08T15:03:11;19.33;;;8.20;;
3625;SDS011;1827;50.534;8.316;2023-05-08T15:05:37;21.83;;;8.97;;
3625;SDS011;1827;50.534;8.316;2023-05-08T15:08:30;22.50;;;8.80;;
3625;SDS011;1827;50.534;8.316;2023-05-08T15:11:01;23.07;;;8.70;;
3625;SDS011;1827;50.534;8.316;2023-05-08T15:13:31;23.03;;;8.80;;
3625;SDS011;1827;50.534;8.316;2023-05-08T15:16:06;25.87;;;9.83;;
3625;SDS011;1827;50.534;8.316;2023-05-08T15:18:35;23.90;;;9.40;;
3625;SDS011;1827;50.534;8.316;2023-05-08T15:21:04;24.07;;;10.10;;
3625;SDS011;1827;50.534;8.316;2023-05-08T15:23:32;25.33;;;9.93;;
3625;SDS011;1827;50.534;8.316;2023-05-08T15:26:03;22.53;;;9.80;;
3625;SDS011;1827;50.534;8.316;2023-05-08T15:28:29;22.73;;;9.87;;
3625;SDS011;1827;50.534;8.316;2023-05-08T15:30:55;22.10;;;9.20;;
3625;SDS011;1827;50.534;8.316;2023-05-08T15:33:25;21.10;;;8.63;;
3625;SDS011;1827;50.534;8.316;2023-05-08T15:35:50;24.10;;;8.90;;
3625;SDS011;1827;50.534;8.316;2023-05-08T15:38:21;21.43;;;8.90;;
3625;SDS011;1827;50.534;8.316;2023-05-08T15:40:48;19.07;;;8.03;;
3625;SDS011;1827;50.534;8.316;2023-05-08T15:43:13;21.00;;;8.77;;
3625;SDS011;1827;50.534;8.316;2023-05-08T15:45:42;20.53;;;8.20;;
3625;SDS011;1827;50.534;8.316;2023-05-08T15:48:07;21.93;;;8.80;;
3625;SDS011;1827;50.534;8.316;2023-05-08T15:50:36;21.30;;;8.03;;
3625;SDS011;1827;50.534;8.316;2023-05-08T15:53:02;23.70;;;9.20;;
3625;SDS011;1827;50.534;8.316;2023-05-08T15:55:30;22.43;;;9.17;;
